sensor_id;sensor_type;location;lat;lon;timestamp;P1;durP1;ratioP1;P2;durP2;ratioP2
3943;SDS011;1986;52.546;13.428;2023-04-08T00:01:56;0.40;;;0.40;;
3943;SDS011;1986;52.546;13.428;2023-04-08T00:04:23;0.40;;;0.40;;
3943;SDS011;1986;52.546;13.428;2023-04-08T00:06:51;3.67;;;2.33;;
3943;SDS011;1986;52.546;13.428;2023-04-08T00:09:19;4.23;;;1.17;;
3943;SDS011;1986;52.546;13.428;2023-04-08T00:11:45;2.20;;;1.80;;
3943;SDS011;1986;52.546;13.428;2023-04-08T00:14:13;0.63;;;0.63;;
3943;SDS011;1986;52.546;13.428;2023-04-08T00:16:40;5.63;;;3.07;;
3943;SDS011;1986;52.546;13.428;2023-04-08T00:19:07;0.40;;;0.40;;
3943;SDS011;1986;52.546;13.428;2023-04-08T00:21:35;0.37;;;0.37;;
3943;SDS011;1986;52.546;13.428;2023-04-08T00:24:03;3.23;;;3.13;;
3943;SDS011;1986;52.546;13.428;2023-04-08T00:26:31;0.50;;;0.50;;
3943;SDS011;1986;52.546;13.428;2023-04-08T00:28:58;5.70;;;1.83;;
3943;SDS011;1986;52.546;13.428;2023-04-08T00:31:25;2.33;;;1.60;;
3943;SDS011;1986;52.546;13.428;2023-04-08T00:33:52;0.70;;;0.70;;
3943;SDS011;1986;52.546;13.428;2023-04-08T00:36:20;2.63;;;2.43;;
3943;SDS011;1986;52.546;13.428;2023-04-08T00:38:47;1.30;;;1.20;;
3943;SDS011;1986;52.546;13.428;2023-04-08T00:41:19;4.77;;;1.50;;
3943;SDS011;1986;52.546;13.428;2023-04-08T00:43:46;1.80;;;1.70;;
3943;SDS011;1986;52.546;13.428;2023-04-08T00:46:13;2.00;;;1.90;;
3943;SDS011;1986;52.546;13.428;2023-04-08T00:48:40;6.97;;;4.27;;
3943;SDS011;1986;52.546;13.428;2023-04-08T00:51:07;18.83;;;5.43;;
3943;SDS011;1986;52.546;13.428;2023-04-08T00:53:36;30.30;;;1.00;;
3943;SDS011;1986;52.546;13.428;2023-04-08T00:56:06;3.47;;;2.20;;
3943;SDS011;1986;52.546;13.428;2023-04-08T00:58:35;2.80;;;2.60;;
3943;SDS011;1986;52.546;13.428;2023-04-08T01:01:02;2.37;;;2.30;;
3943;SDS011;1986;52.546;13.428;2023-04-08T01:03:34;0.57;;;0.57;;
3943;SDS011;1986;52.546;13.428;2023-04-08T01:06:09;6.93;;;5.07;;
3943;SDS011;1986;52.546;13.428;2023-04-08T01:08:43;5.50;;;1.77;;
3943;SDS011;1986;52.546;13.428;2023-04-08T01:11:11;8.93;;;3.40;;
3943;SDS011;1986;52.546;13.428;2023-04-08T01:13:41;3.83;;;3.53;;
3943;SDS011;1986;52.546;13.428;2023-04-08T01:16:11;3.87;;;1.70;;
3943;SDS011;1986;52.546;13.428;2023-04-08T01:18:40;1.80;;;1.67;;
3943;SDS011;1986;52.546;13.428;2023-04-08T01:21:10;0.30;;;0.30;;
3943;SDS011;1986;52.546;13.428;2023-04-08T01:23:42;0.40;;;0.40;;
3943;SDS011;1986;52.546;13.428;2023-04-08T01:26:22;1.53;;;1.03;;
3943;SDS011;1986;52.546;13.428;2023-04-08T01:28:51;1.23;;;1.03;;
3943;SDS011;1986;52.546;13.428;2023-04-08T01:31:20;1.90;;;1.40;;
3943;SDS011;1986;52.546;13.428;2023-04-08T01:33:49;5.17;;;4.67;;
3943;SDS011;1986;52.546;13.428;2023-04-08T01:36:17;2.83;;;2.03;;
3943;SDS011;1986;52.546;13.428;2023-04-08T01:38:48;3.30;;;3.10;;
3943;SDS011;1986;52.546;13.428;2023-04-08T01:41:17;7.00;;;3.13;;
3943;SDS011;1986;52.546;13.428;2023-04-08T01:43:46;3.50;;;1.07;;
3943;SDS011;1986;52.546;13.428;2023-04-08T01:46:15;4.63;;;4.00;;
3943;SDS011;1986;52.546;13.428;2023-04-08T01:48:44;1.90;;;1.17;;
3943;SDS011;1986;52.546;13.428;2023-04-08T01:51:13;1.20;;;1.10;;
3943;SDS011;1986;52.546;13.428;2023-04-08T01:53:41;0.30;;;0.30;;
3943;SDS011;1986;52.546;13.428;2023-04-08T01:56:10;0.90;;;0.90;;
3943;SDS011;1986;52.546;13.428;2023-04-08T01:58:40;9.20;;;5.93;;
3943;SDS011;1986;52.546;13.428;2023-04-08T02:01:11;10.63;;;4.13;;
3943;SDS011;1986;52.546;13.428;2023-04-08T02:03:43;0.97;;;0.77;;
3943;SDS011;1986;52.546;13.428;2023-04-08T02:06:11;17.83;;;6.87;;
3943;SDS011;1986;52.546;13.428;2023-04-08T02:08:38;3.63;;;2.20;;
3943;SDS011;1986;52.546;13.428;2023-04-08T02:11:06;0.97;;;0.97;;
3943;SDS011;1986;52.546;13.428;2023-04-08T02:13:33;3.70;;;2.57;;
3943;SDS011;1986;52.546;13.428;2023-04-08T02:16:05;9.50;;;3.17;;
3943;SDS011;1986;52.546;13.428;2023-04-08T02:18:38;2.03;;;1.30;;
3943;SDS011;1986;52.546;13.428;2023-04-08T02:21:13;3.27;;;3.07;;
3943;SDS011;1986;52.546;13.428;2023-04-08T02:23:41;11.90;;;6.50;;
3943;SDS011;1986;52.546;13.428;2023-04-08T02:26:14;27.27;;;4.47;;
3943;SDS011;1986;52.546;13.428;2023-04-08T02:28:43;1.00;;;0.97;;
3943;SDS011;1986;52.546;13.428;2023-04-08T02:31:12;1.63;;;1.53;;
3943;SDS011;1986;52.546;13.428;2023-04-08T02:33:43;1.10;;;1.10;;
3943;SDS011;1986;52.546;13.428;2023-04-08T02:36:11;10.00;;;5.10;;
3943;SDS011;1986;52.546;13.428;2023-04-08T02:38:38;3.23;;;1.60;;
3943;SDS011;1986;52.546;13.428;2023-04-08T02:41:05;7.73;;;2.97;;
3943;SDS011;1986;52.546;13.428;2023-04-08T02:43:32;12.17;;;5.53;;
3943;SDS011;1986;52.546;13.428;2023-04-08T02:46:00;0.30;;;0.30;;
3943;SDS011;1986;52.546;13.428;2023-04-08T02:48:28;1.13;;;1.13;;
3943;SDS011;1986;52.546;13.428;2023-04-08T02:50:56;4.67;;;3.70;;
3943;SDS011;1986;52.546;13.428;2023-04-08T02:53:23;2.17;;;1.83;;
3943;SDS011;1986;52.546;13.428;2023-04-08T02:55:50;1.57;;;1.50;;
3943;SDS011;1986;52.546;13.428;2023-04-08T02:58:19;14.50;;;1.60;;
3943;SDS011;1986;52.546;13.428;2023-04-08T03:00:46;10.53;;;5.57;;
3943;SDS011;1986;52.546;13.428;2023-04-08T03:03:13;6.40;;;2.60;;
3943;SDS011;1986;52.546;13.428;2023-04-08T03:05:40;22.20;;;2.10;;
3943;SDS011;1986;52.546;13.428;2023-04-08T03:08:09;0.73;;;0.73;;
3943;SDS011;1986;52.546;13.428;2023-04-08T03:10:35;4.80;;;0.97;;
3943;SDS011;1986;52.546;13.428;2023-04-08T03:13:02;1.13;;;1.07;;
3943;SDS011;1986;52.546;13.428;2023-04-08T03:15:29;3.70;;;3.50;;
3943;SDS011;1986;52.546;13.428;2023-04-08T03:17:56;4.43;;;2.53;;
3943;SDS011;1986;52.546;13.428;2023-04-08T03:20:23;7.63;;;3.27;;
3943;SDS011;1986;52.546;13.428;2023-04-08T03:22:52;5.43;;;4.90;;
3943;SDS011;1986;52.546;13.428;2023-04-08T03:25:21;1.60;;;1.60;;
3943;SDS011;1986;52.546;13.428;2023-04-08T03:27:48;6.23;;;5.10;;
3943;SDS011;1986;52.546;13.428;2023-04-08T03:30:15;2.20;;;2.10;;
3943;SDS011;1986;52.546;13.428;2023-04-08T03:32:42;4.13;;;2.53;;
3943;SDS011;1986;52.546;13.428;2023-04-08T03:35:09;12.90;;;3.03;;
3943;SDS011;1986;52.546;13.428;2023-04-08T03:37:36;18.87;;;5.13;;
3943;SDS011;1986;52.546;13.428;2023-04-08T03:40:03;1.23;;;1.13;;
3943;SDS011;1986;52.546;13.428;2023-04-08T03:42:32;3.60;;;3.27;;
3943;SDS011;1986;52.546;13.428;2023-04-08T03:44:59;9.97;;;2.33;;
3943;SDS011;1986;52.546;13.428;2023-04-08T03:47:26;5.73;;;3.50;;
3943;SDS011;1986;52.546;13.428;2023-04-08T03:49:53;12.43;;;5.17;;
3943;SDS011;1986;52.546;13.428;2023-04-08T03:52:20;8.07;;;2.37;;
3943;SDS011;1986;52.546;13.428;2023-04-08T03:54:48;11.77;;;4.47;;
3943;SDS011;1986;52.546;13.428;2023-04-08T03:57:15;13.73;;;3.30;;
3943;SDS011;1986;52.546;13.428;2023-04-08T03:59:43;1.17;;;0.60;;
3943;SDS011;1986;52.546;13.428;2023-04-08T04:02:10;0.40;;;0.40;;
3943;SDS011;1986;52.546;13.428;2023-04-08T04:04:37;3.10;;;2.80;;
3943;SDS011;1986;52.546;13.428;2023-04-08T04:07:04;2.27;;;2.17;;
3943;SDS011;1986;52.546;13.428;2023-04-08T04:09:31;6.93;;;3.43;;
3943;SDS011;1986;52.546;13.428;2023-04-08T04:11:57;2.00;;;1.90;;
3943;SDS011;1986;52.546;13.428;2023-04-08T04:14:24;4.07;;;2.10;;
3943;SDS011;1986;52.546;13.428;2023-04-08T04:16:53;1.63;;;1.53;;
3943;SDS011;1986;52.546;13.428;2023-04-08T04:19:20;0.50;;;0.50;;
3943;SDS011;1986;52.546;13.428;2023-04-08T04:21:47;0.90;;;0.90;;
3943;SDS011;1986;52.546;13.428;2023-04-08T04:24:13;3.97;;;1.90;;
3943;SDS011;1986;52.546;13.428;2023-04-08T04:26:40;11.83;;;5.10;;
3943;SDS011;1986;52.546;13.428;2023-04-08T04:29:07;10.53;;;4.93;;
3943;SDS011;1986;52.546;13.428;2023-04-08T04:31:34;0.80;;;0.53;;
3943;SDS011;1986;52.546;13.428;2023-04-08T04:34:03;4.13;;;3.07;;
3943;SDS011;1986;52.546;13.428;2023-04-08T04:36:33;2.87;;;2.50;;
3943;SDS011;1986;52.546;13.428;2023-04-08T04:39:00;13.03;;;4.73;;
3943;SDS011;1986;52.546;13.428;2023-04-08T04:41:27;9.80;;;4.90;;
3943;SDS011;1986;52.546;13.428;2023-04-08T04:43:54;7.83;;;4.70;;
3943;SDS011;1986;52.546;13.428;2023-04-08T04:46:22;8.30;;;3.90;;
3943;SDS011;1986;52.546;13.428;2023-04-08T04:48:49;0.80;;;0.80;;
3943;SDS011;1986;52.546;13.428;2023-04-08T04:51:17;7.73;;;7.03;;
3943;SDS011;1986;52.546;13.428;2023-04-08T04:53:44;5.93;;;3.10;;
3943;SDS011;1986;52.546;13.428;2023-04-08T04:56:12;10.70;;;3.10;;
3943;SDS011;1986;52.546;13.428;2023-04-08T04:58:39;10.80;;;4.67;;
3943;SDS011;1986;52.546;13.428;2023-04-08T05:01:06;2.77;;;2.57;;
3943;SDS011;1986;52.546;13.428;2023-04-08T05:03:33;4.43;;;2.80;;
3943;SDS011;1986;52.546;13.428;2023-04-08T05:06:04;8.50;;;3.60;;
3943;SDS011;1986;52.546;13.428;2023-04-08T05:08:32;14.07;;;5.13;;
3943;SDS011;1986;52.546;13.428;2023-04-08T05:10:59;7.80;;;3.87;;
3943;SDS011;1986;52.546;13.428;2023-04-08T05:13:27;6.27;;;5.10;;
3943;SDS011;1986;52.546;13.428;2023-04-08T05:15:54;23.67;;;3.90;;
3943;SDS011;1986;52.546;13.428;2023-04-08T05:18:21;11.30;;;3.53;;
3943;SDS011;1986;52.546;13.428;2023-04-08T05:20:48;9.40;;;5.20;;
3943;SDS011;1986;52.546;13.428;2023-04-08T05:23:14;13.37;;;4.40;;
3943;SDS011;1986;52.546;13.428;2023-04-08T05:25:43;0.70;;;0.70;;
3943;SDS011;1986;52.546;13.428;2023-04-08T05:28:10;0.33;;;0.33;;
3943;SDS011;1986;52.546;13.428;2023-04-08T05:30:37;0.30;;;0.30;;
3943;SDS011;1986;52.546;13.428;2023-04-08T05:33:03;0.50;;;0.50;;
3943;SDS011;1986;52.546;13.428;2023-04-08T05:35:30;0.70;;;0.70;;
3943;SDS011;1986;52.546;13.428;2023-04-08T05:37:57;0.73;;;0.73;;
3943;SDS011;1986;52.546;13.428;2023-04-08T05:40:24;21.27;;;5.20;;
3943;SDS011;1986;52.546;13.428;2023-04-08T05:42:53;36.50;;;6.83;;
3943;SDS011;1986;52.546;13.428;2023-04-08T05:45:20;5.20;;;3.80;;
3943;SDS011;1986;52.546;13.428;2023-04-08T05:47:46;10.60;;;5.70;;
3943;SDS011;1986;52.546;13.428;2023-04-08T05:50:13;7.20;;;3.90;;
3943;SDS011;1986;52.546;13.428;2023-04-08T05:52:41;10.57;;;4.10;;
3943;SDS011;1986;52.546;13.428;2023-04-08T05:55:09;3.03;;;2.10;;
3943;SDS011;1986;52.546;13.428;2023-04-08T05:57:36;4.17;;;2.83;;
3943;SDS011;1986;52.546;13.428;2023-04-08T06:00:06;18.63;;;4.87;;
3943;SDS011;1986;52.546;13.428;2023-04-08T06:02:35;1.40;;;1.13;;
3943;SDS011;1986;52.546;13.428;2023-04-08T06:05:02;2.73;;;2.23;;
3943;SDS011;1986;52.546;13.428;2023-04-08T06:07:31;2.53;;;2.43;;
3943;SDS011;1986;52.546;13.428;2023-04-08T06:09:58;4.67;;;3.87;;
3943;SDS011;1986;52.546;13.428;2023-04-08T06:12:26;21.93;;;5.67;;
3943;SDS011;1986;52.546;13.428;2023-04-08T06:14:53;15.13;;;6.27;;
3943;SDS011;1986;52.546;13.428;2023-04-08T06:17:22;1.37;;;1.37;;
3943;SDS011;1986;52.546;13.428;2023-04-08T06:19:49;0.93;;;0.90;;
3943;SDS011;1986;52.546;13.428;2023-04-08T06:22:17;7.50;;;1.50;;
3943;SDS011;1986;52.546;13.428;2023-04-08T06:24:45;8.77;;;4.17;;
3943;SDS011;1986;52.546;13.428;2023-04-08T06:27:12;10.80;;;5.50;;
3943;SDS011;1986;52.546;13.428;2023-04-08T06:29:40;1.17;;;0.70;;
3943;SDS011;1986;52.546;13.428;2023-04-08T06:32:07;4.93;;;3.00;;
3943;SDS011;1986;52.546;13.428;2023-04-08T06:34:35;1.37;;;1.27;;
3943;SDS011;1986;52.546;13.428;2023-04-08T06:37:02;1.53;;;1.47;;
3943;SDS011;1986;52.546;13.428;2023-04-08T06:39:30;9.93;;;2.93;;
3943;SDS011;1986;52.546;13.428;2023-04-08T06:41:57;28.90;;;7.63;;
3943;SDS011;1986;52.546;13.428;2023-04-08T06:44:23;26.37;;;6.93;;
3943;SDS011;1986;52.546;13.428;2023-04-08T06:46:50;7.77;;;4.27;;
3943;SDS011;1986;52.546;13.428;2023-04-08T06:49:18;13.07;;;6.63;;
3943;SDS011;1986;52.546;13.428;2023-04-08T06:51:46;9.43;;;5.10;;
3943;SDS011;1986;52.546;13.428;2023-04-08T06:54:13;11.60;;;4.30;;
3943;SDS011;1986;52.546;13.428;2023-04-08T06:56:40;6.87;;;2.77;;
3943;SDS011;1986;52.546;13.428;2023-04-08T06:59:09;5.53;;;2.53;;
3943;SDS011;1986;52.546;13.428;2023-04-08T07:01:37;16.90;;;6.70;;
3943;SDS011;1986;52.546;13.428;2023-04-08T07:04:04;2.83;;;2.73;;
3943;SDS011;1986;52.546;13.428;2023-04-08T07:06:31;4.10;;;3.90;;
3943;SDS011;1986;52.546;13.428;2023-04-08T07:08:59;36.17;;;4.10;;
3943;SDS011;1986;52.546;13.428;2023-04-08T07:11:26;3.70;;;2.10;;
3943;SDS011;1986;52.546;13.428;2023-04-08T07:13:53;4.53;;;1.50;;
3943;SDS011;1986;52.546;13.428;2023-04-08T07:16:20;6.27;;;4.33;;
3943;SDS011;1986;52.546;13.428;2023-04-08T07:18:47;12.77;;;6.87;;
3943;SDS011;1986;52.546;13.428;2023-04-08T07:21:16;4.77;;;4.33;;
3943;SDS011;1986;52.546;13.428;2023-04-08T07:23:43;13.93;;;3.70;;
3943;SDS011;1986;52.546;13.428;2023-04-08T07:26:13;1.47;;;1.37;;
3943;SDS011;1986;52.546;13.428;2023-04-08T07:28:40;15.13;;;2.67;;
3943;SDS011;1986;52.546;13.428;2023-04-08T07:31:08;3.40;;;3.10;;
3943;SDS011;1986;52.546;13.428;2023-04-08T07:33:36;0.57;;;0.57;;
3943;SDS011;1986;52.546;13.428;2023-04-08T07:36:03;5.83;;;1.80;;
3943;SDS011;1986;52.546;13.428;2023-04-08T07:38:30;2.50;;;2.30;;
3943;SDS011;1986;52.546;13.428;2023-04-08T07:40:59;28.73;;;5.30;;
3943;SDS011;1986;52.546;13.428;2023-04-08T07:43:27;13.43;;;5.60;;
3943;SDS011;1986;52.546;13.428;2023-04-08T07:45:58;14.40;;;8.20;;
3943;SDS011;1986;52.546;13.428;2023-04-08T07:48:27;3.07;;;0.90;;
3943;SDS011;1986;52.546;13.428;2023-04-08T07:50:55;2.30;;;1.90;;
3943;SDS011;1986;52.546;13.428;2023-04-08T07:53:21;11.10;;;4.93;;
3943;SDS011;1986;52.546;13.428;2023-04-08T07:55:50;4.07;;;2.17;;
3943;SDS011;1986;52.546;13.428;2023-04-08T07:58:17;3.80;;;3.50;;
3943;SDS011;1986;52.546;13.428;2023-04-08T08:00:46;4.03;;;3.30;;
3943;SDS011;1986;52.546;13.428;2023-04-08T08:03:16;7.73;;;4.67;;
3943;SDS011;1986;52.546;13.428;2023-04-08T08:05:43;8.43;;;5.00;;
3943;SDS011;1986;52.546;13.428;2023-04-08T08:08:10;8.10;;;2.67;;
3943;SDS011;1986;52.546;13.428;2023-04-08T08:10:37;10.93;;;6.90;;
3943;SDS011;1986;52.546;13.428;2023-04-08T08:13:05;11.00;;;8.57;;
3943;SDS011;1986;52.546;13.428;2023-04-08T08:15:32;22.37;;;7.30;;
3943;SDS011;1986;52.546;13.428;2023-04-08T08:18:02;5.07;;;3.23;;
3943;SDS011;1986;52.546;13.428;2023-04-08T08:20:29;5.70;;;2.60;;
3943;SDS011;1986;52.546;13.428;2023-04-08T08:22:55;41.37;;;6.50;;
3943;SDS011;1986;52.546;13.428;2023-04-08T08:25:22;6.20;;;5.37;;
3943;SDS011;1986;52.546;13.428;2023-04-08T08:27:51;11.63;;;4.80;;
3943;SDS011;1986;52.546;13.428;2023-04-08T08:30:21;27.93;;;7.10;;
3943;SDS011;1986;52.546;13.428;2023-04-08T08:32:48;15.93;;;9.03;;
3943;SDS011;1986;52.546;13.428;2023-04-08T08:35:17;13.33;;;7.33;;
3943;SDS011;1986;52.546;13.428;2023-04-08T08:37:44;10.00;;;8.50;;
3943;SDS011;1986;52.546;13.428;2023-04-08T08:40:12;26.47;;;8.40;;
3943;SDS011;1986;52.546;13.428;2023-04-08T08:42:39;19.03;;;7.77;;
3943;SDS011;1986;52.546;13.428;2023-04-08T08:45:07;12.90;;;7.30;;
3943;SDS011;1986;52.546;13.428;2023-04-08T08:47:35;8.10;;;2.80;;
3943;SDS011;1986;52.546;13.428;2023-04-08T08:50:02;6.73;;;3.77;;
3943;SDS011;1986;52.546;13.428;2023-04-08T08:52:31;15.30;;;7.50;;
3943;SDS011;1986;52.546;13.428;2023-04-08T08:54:58;3.00;;;2.43;;
3943;SDS011;1986;52.546;13.428;2023-04-08T08:57:25;6.60;;;6.00;;
3943;SDS011;1986;52.546;13.428;2023-04-08T08:59:52;7.93;;;6.60;;
3943;SDS011;1986;52.546;13.428;2023-04-08T09:02:22;14.80;;;6.20;;
3943;SDS011;1986;52.546;13.428;2023-04-08T09:04:55;9.07;;;6.53;;
3943;SDS011;1986;52.546;13.428;2023-04-08T09:07:23;9.47;;;6.57;;
3943;SDS011;1986;52.546;13.428;2023-04-08T09:09:56;19.27;;;8.70;;
3943;SDS011;1986;52.546;13.428;2023-04-08T09:12:24;20.80;;;11.50;;
3943;SDS011;1986;52.546;13.428;2023-04-08T09:15:02;15.90;;;6.50;;
3943;SDS011;1986;52.546;13.428;2023-04-08T09:17:30;16.63;;;9.40;;
3943;SDS011;1986;52.546;13.428;2023-04-08T09:20:05;22.17;;;9.70;;
3943;SDS011;1986;52.546;13.428;2023-04-08T09:25:23;27.30;;;7.17;;
3943;SDS011;1986;52.546;13.428;2023-04-08T09:27:51;9.57;;;8.70;;
3943;SDS011;1986;52.546;13.428;2023-04-08T09:30:19;12.63;;;9.90;;
3943;SDS011;1986;52.546;13.428;2023-04-08T09:32:49;7.20;;;6.90;;
3943;SDS011;1986;52.546;13.428;2023-04-08T09:35:17;13.70;;;7.53;;
3943;SDS011;1986;52.546;13.428;2023-04-08T09:37:44;15.40;;;9.90;;
3943;SDS011;1986;52.546;13.428;2023-04-08T09:40:12;5.33;;;4.97;;
3943;SDS011;1986;52.546;13.428;2023-04-08T09:42:44;23.27;;;11.60;;
3943;SDS011;1986;52.546;13.428;2023-04-08T09:45:15;9.03;;;7.70;;
3943;SDS011;1986;52.546;13.428;2023-04-08T09:47:43;13.90;;;7.77;;
3943;SDS011;1986;52.546;13.428;2023-04-08T09:50:21;31.50;;;13.03;;
3943;SDS011;1986;52.546;13.428;2023-04-08T09:52:55;24.60;;;9.43;;
3943;SDS011;1986;52.546;13.428;2023-04-08T09:55:26;13.67;;;9.63;;
3943;SDS011;1986;52.546;13.428;2023-04-08T09:58:00;6.03;;;5.63;;
3943;SDS011;1986;52.546;13.428;2023-04-08T10:00:30;15.20;;;11.57;;
3943;SDS011;1986;52.546;13.428;2023-04-08T10:03:02;5.43;;;5.23;;
3943;SDS011;1986;52.546;13.428;2023-04-08T10:05:35;6.83;;;6.30;;
3943;SDS011;1986;52.546;13.428;2023-04-08T10:08:04;6.70;;;6.10;;
3943;SDS011;1986;52.546;13.428;2023-04-08T10:10:32;25.93;;;10.93;;
3943;SDS011;1986;52.546;13.428;2023-04-08T10:13:02;14.73;;;11.03;;
3943;SDS011;1986;52.546;13.428;2023-04-08T10:15:30;10.47;;;9.60;;
3943;SDS011;1986;52.546;13.428;2023-04-08T10:21:01;24.80;;;12.10;;
3943;SDS011;1986;52.546;13.428;2023-04-08T10:26:33;12.87;;;10.90;;
3943;SDS011;1986;52.546;13.428;2023-04-08T10:29:30;13.10;;;11.80;;
3943;SDS011;1986;52.546;13.428;2023-04-08T10:31:58;14.77;;;13.70;;
3943;SDS011;1986;52.546;13.428;2023-04-08T10:34:27;15.60;;;14.30;;
3943;SDS011;1986;52.546;13.428;2023-04-08T10:36:55;35.23;;;13.00;;
3943;SDS011;1986;52.546;13.428;2023-04-08T10:39:26;31.53;;;15.60;;
3943;SDS011;1986;52.546;13.428;2023-04-08T10:41:53;11.70;;;11.33;;
3943;SDS011;1986;52.546;13.428;2023-04-08T10:44:21;17.17;;;16.03;;
3943;SDS011;1986;52.546;13.428;2023-04-08T10:46:51;17.83;;;16.17;;
3943;SDS011;1986;52.546;13.428;2023-04-08T10:49:18;12.30;;;11.57;;
3943;SDS011;1986;52.546;13.428;2023-04-08T10:51:46;17.70;;;16.33;;
3943;SDS011;1986;52.546;13.428;2023-04-08T10:54:13;16.43;;;15.07;;
3943;SDS011;1986;52.546;13.428;2023-04-08T10:56:45;13.47;;;12.83;;
3943;SDS011;1986;52.546;13.428;2023-04-08T10:59:13;16.87;;;15.50;;
3943;SDS011;1986;52.546;13.428;2023-04-08T11:01:42;13.50;;;13.10;;
3943;SDS011;1986;52.546;13.428;2023-04-08T11:04:12;15.87;;;14.97;;
3943;SDS011;1986;52.546;13.428;2023-04-08T11:06:41;18.23;;;16.70;;
3943;SDS011;1986;52.546;13.428;2023-04-08T11:09:08;12.57;;;12.23;;
3943;SDS011;1986;52.546;13.428;2023-04-08T11:11:36;15.07;;;14.07;;
3943;SDS011;1986;52.546;13.428;2023-04-08T11:14:03;21.60;;;18.50;;
3943;SDS011;1986;52.546;13.428;2023-04-08T11:16:31;19.60;;;17.90;;
3943;SDS011;1986;52.546;13.428;2023-04-08T11:19:00;18.23;;;16.90;;
3943;SDS011;1986;52.546;13.428;2023-04-08T11:21:30;12.97;;;12.57;;
3943;SDS011;1986;52.546;13.428;2023-04-08T11:24:00;16.30;;;15.43;;
3943;SDS011;1986;52.546;13.428;2023-04-08T11:26:34;17.00;;;16.10;;
3943;SDS011;1986;52.546;13.428;2023-04-08T11:29:03;17.10;;;15.77;;
3943;SDS011;1986;52.546;13.428;2023-04-08T11:31:30;16.47;;;15.47;;
3943;SDS011;1986;52.546;13.428;2023-04-08T11:33:58;19.10;;;17.70;;
3943;SDS011;1986;52.546;13.428;2023-04-08T11:36:27;15.20;;;14.20;;
3943;SDS011;1986;52.546;13.428;2023-04-08T11:38:56;16.30;;;15.37;;
3943;SDS011;1986;52.546;13.428;2023-04-08T11:41:23;13.10;;;12.70;;
3943;SDS011;1986;52.546;13.428;2023-04-08T11:43:54;26.43;;;21.40;;
3943;SDS011;1986;52.546;13.428;2023-04-08T11:46:21;25.70;;;20.10;;
3943;SDS011;1986;52.546;13.428;2023-04-08T11:48:58;14.83;;;14.20;;
3943;SDS011;1986;52.546;13.428;2023-04-08T11:51:26;16.57;;;14.87;;
3943;SDS011;1986;52.546;13.428;2023-04-08T11:53:55;14.80;;;14.30;;
3943;SDS011;1986;52.546;13.428;2023-04-08T11:56:23;15.67;;;14.67;;
3943;SDS011;1986;52.546;13.428;2023-04-08T11:58:50;13.77;;;13.13;;
3943;SDS011;1986;52.546;13.428;2023-04-08T12:01:17;16.13;;;15.17;;
3943;SDS011;1986;52.546;13.428;2023-04-08T12:03:58;19.73;;;18.13;;
3943;SDS011;1986;52.546;13.428;2023-04-08T12:06:26;16.83;;;15.37;;
3943;SDS011;1986;52.546;13.428;2023-04-08T12:08:55;18.30;;;16.47;;
3943;SDS011;1986;52.546;13.428;2023-04-08T12:11:23;17.33;;;15.90;;
3943;SDS011;1986;52.546;13.428;2023-04-08T12:14:04;16.57;;;15.53;;
3943;SDS011;1986;52.546;13.428;2023-04-08T12:16:31;16.50;;;15.27;;
3943;SDS011;1986;52.546;13.428;2023-04-08T12:18:58;15.63;;;14.83;;
3943;SDS011;1986;52.546;13.428;2023-04-08T12:21:25;18.07;;;16.03;;
3943;SDS011;1986;52.546;13.428;2023-04-08T12:23:57;16.27;;;15.27;;
3943;SDS011;1986;52.546;13.428;2023-04-08T12:26:24;19.63;;;18.20;;
3943;SDS011;1986;52.546;13.428;2023-04-08T12:28:52;16.70;;;16.00;;
3943;SDS011;1986;52.546;13.428;2023-04-08T12:31:19;17.80;;;16.63;;
3943;SDS011;1986;52.546;13.428;2023-04-08T12:33:46;20.40;;;18.80;;
3943;SDS011;1986;52.546;13.428;2023-04-08T12:36:13;22.40;;;20.40;;
3943;SDS011;1986;52.546;13.428;2023-04-08T12:38:41;17.80;;;16.43;;
3943;SDS011;1986;52.546;13.428;2023-04-08T12:41:09;19.43;;;18.07;;
3943;SDS011;1986;52.546;13.428;2023-04-08T12:43:36;19.70;;;18.03;;
3943;SDS011;1986;52.546;13.428;2023-04-08T12:46:05;26.17;;;19.27;;
3943;SDS011;1986;52.546;13.428;2023-04-08T12:48:31;20.40;;;19.10;;
3943;SDS011;1986;52.546;13.428;2023-04-08T12:50:58;18.93;;;17.47;;
3943;SDS011;1986;52.546;13.428;2023-04-08T12:53:26;16.50;;;15.70;;
3943;SDS011;1986;52.546;13.428;2023-04-08T12:55:53;18.63;;;17.43;;
3943;SDS011;1986;52.546;13.428;2023-04-08T12:58:23;15.73;;;15.03;;
3943;SDS011;1986;52.546;13.428;2023-04-08T13:00:53;16.60;;;15.80;;
3943;SDS011;1986;52.546;13.428;2023-04-08T13:03:42;20.27;;;18.90;;
3943;SDS011;1986;52.546;13.428;2023-04-08T13:06:18;17.87;;;16.70;;
3943;SDS011;1986;52.546;13.428;2023-04-08T13:08:45;20.10;;;18.47;;
3943;SDS011;1986;52.546;13.428;2023-04-08T13:11:13;16.07;;;15.37;;
3943;SDS011;1986;52.546;13.428;2023-04-08T13:13:41;17.57;;;16.30;;
3943;SDS011;1986;52.546;13.428;2023-04-08T13:16:10;20.20;;;17.90;;
3943;SDS011;1986;52.546;13.428;2023-04-08T13:18:38;15.00;;;14.40;;
3943;SDS011;1986;52.546;13.428;2023-04-08T13:21:06;17.77;;;16.87;;
3943;SDS011;1986;52.546;13.428;2023-04-08T13:23:33;16.77;;;15.83;;
3943;SDS011;1986;52.546;13.428;2023-04-08T13:26:00;16.77;;;16.07;;
3943;SDS011;1986;52.546;13.428;2023-04-08T13:28:27;20.57;;;19.20;;
3943;SDS011;1986;52.546;13.428;2023-04-08T13:30:56;19.60;;;18.30;;
3943;SDS011;1986;52.546;13.428;2023-04-08T13:33:23;18.27;;;17.00;;
3943;SDS011;1986;52.546;13.428;2023-04-08T13:35:50;19.50;;;18.20;;
3943;SDS011;1986;52.546;13.428;2023-04-08T13:38:17;19.03;;;17.93;;
3943;SDS011;1986;52.546;13.428;2023-04-08T13:40:44;17.30;;;16.50;;
3943;SDS011;1986;52.546;13.428;2023-04-08T13:43:11;17.93;;;17.03;;
3943;SDS011;1986;52.546;13.428;2023-04-08T13:45:38;17.90;;;17.00;;
3943;SDS011;1986;52.546;13.428;2023-04-08T13:48:07;20.23;;;18.93;;
3943;SDS011;1986;52.546;13.428;2023-04-08T13:50:34;21.77;;;19.70;;
3943;SDS011;1986;52.546;13.428;2023-04-08T13:53:01;18.53;;;17.53;;
3943;SDS011;1986;52.546;13.428;2023-04-08T13:55:30;19.17;;;17.90;;
3943;SDS011;1986;52.546;13.428;2023-04-08T13:57:57;17.00;;;16.20;;
3943;SDS011;1986;52.546;13.428;2023-04-08T14:00:29;17.30;;;16.50;;
3943;SDS011;1986;52.546;13.428;2023-04-08T14:02:58;18.30;;;17.40;;
3943;SDS011;1986;52.546;13.428;2023-04-08T14:05:27;21.10;;;19.47;;
3943;SDS011;1986;52.546;13.428;2023-04-08T14:07:54;20.63;;;19.10;;
3943;SDS011;1986;52.546;13.428;2023-04-08T14:10:21;21.13;;;19.47;;
3943;SDS011;1986;52.546;13.428;2023-04-08T14:12:48;22.10;;;20.70;;
3943;SDS011;1986;52.546;13.428;2023-04-08T14:15:15;21.33;;;19.93;;
3943;SDS011;1986;52.546;13.428;2023-04-08T14:17:42;17.93;;;17.03;;
3943;SDS011;1986;52.546;13.428;2023-04-08T14:20:09;22.33;;;20.43;;
3943;SDS011;1986;52.546;13.428;2023-04-08T14:22:37;25.10;;;22.77;;
3943;SDS011;1986;52.546;13.428;2023-04-08T14:25:04;19.73;;;18.67;;
3943;SDS011;1986;52.546;13.428;2023-04-08T14:27:32;20.93;;;18.87;;
3943;SDS011;1986;52.546;13.428;2023-04-08T14:29:58;18.23;;;17.33;;
3943;SDS011;1986;52.546;13.428;2023-04-08T14:32:25;21.13;;;19.20;;
3943;SDS011;1986;52.546;13.428;2023-04-08T14:34:52;24.27;;;21.97;;
3943;SDS011;1986;52.546;13.428;2023-04-08T14:37:20;19.73;;;18.57;;
3943;SDS011;1986;52.546;13.428;2023-04-08T14:39:48;19.83;;;18.57;;
3943;SDS011;1986;52.546;13.428;2023-04-08T14:42:15;18.70;;;17.60;;
3943;SDS011;1986;52.546;13.428;2023-04-08T14:44:46;19.97;;;18.40;;
3943;SDS011;1986;52.546;13.428;2023-04-08T14:47:13;18.17;;;16.97;;
3943;SDS011;1986;52.546;13.428;2023-04-08T14:49:41;17.77;;;16.90;;
3943;SDS011;1986;52.546;13.428;2023-04-08T14:52:08;20.40;;;19.13;;
3943;SDS011;1986;52.546;13.428;2023-04-08T14:54:37;20.90;;;19.33;;
3943;SDS011;1986;52.546;13.428;2023-04-08T14:57:06;20.40;;;18.73;;
3943;SDS011;1986;52.546;13.428;2023-04-08T14:59:33;22.43;;;21.13;;
3943;SDS011;1986;52.546;13.428;2023-04-08T15:02:05;18.63;;;17.07;;
3943;SDS011;1986;52.546;13.428;2023-04-08T15:04:33;18.33;;;17.43;;
3943;SDS011;1986;52.546;13.428;2023-04-08T15:07:00;18.13;;;17.23;;